createdAt,value
2023-02-14T00:01:11.465Z,100019.50
2023-02-14T00:06:16.372Z,100031.56
2023-02-14T00:11:20.983Z,100036.81
2023-02-14T00:16:27.446Z,100035.00
2023-02-14T00:21:33.261Z,100041.91
2023-02-14T00:26:39.599Z,100046.31
2023-02-14T00:31:47.074Z,100049.34
2023-02-14T00:36:51.735Z,100051.56
2023-02-14T00:41:55.883Z,100056.16
2023-02-14T00:47:02.353Z,100049.91
2023-02-14T00:52:08.174Z,100054.91
2023-02-14T00:57:12.727Z,100043.06
2023-02-14T01:02:19.939Z,100038.84
2023-02-14T01:07:24.537Z,100035.59
2023-02-14T01:12:30.826Z,100040.47
2023-02-14T01:17:36.794Z,100028.88
2023-02-14T01:22:41.845Z,100033.19
2023-02-14T01:27:46.383Z,100020.59
2023-02-14T01:32:52.686Z,100026.63
2023-02-14T01:37:58.335Z,100022.84
2023-02-14T01:43:02.994Z,100017.59
2023-02-14T01:48:09.791Z,100015.13
2023-02-14T01:53:18.543Z,100015.22
2023-02-14T01:58:27.574Z,100011.97
2023-02-14T02:03:41.370Z,100009.22
2023-02-14T02:08:55.797Z,100015.22
2023-02-14T02:14:00.613Z,100011.22
2023-02-14T02:19:36.512Z,100005.72
2023-02-14T02:24:54.837Z,99994.19
2023-02-14T02:31:08.993Z,100006.81
2023-02-14T02:37:01.786Z,100001.47
2023-02-14T02:42:20.400Z,99987.94
2023-02-14T02:47:32.802Z,99997.97
2023-02-14T02:53:06.462Z,99998.66
2023-02-14T02:58:15.287Z,99993.09
2023-02-14T03:03:40.280Z,99997.13
2023-02-14T03:08:45.949Z,99987.00
2023-02-14T03:14:10.521Z,99989.66
2023-02-14T03:20:00.377Z,99989.66
2023-02-14T03:25:23.870Z,99990.41
2023-02-14T03:30:42.391Z,99999.06
2023-02-14T03:36:02.188Z,99994.66
2023-02-14T03:41:15.980Z,99998.97
2023-02-14T03:46:26.919Z,99996.47
2023-02-14T03:51:35.114Z,99999.06
2023-02-14T03:56:48.382Z,99997.97
2023-02-14T04:02:00.936Z,100004.56
2023-02-14T04:07:12.152Z,100005.56
2023-02-14T04:12:32.299Z,100010.72
2023-02-14T04:17:59.590Z,100008.81
2023-02-14T04:23:04.388Z,100009.66
2023-02-14T04:28:10.305Z,100015.34
2023-02-14T04:33:14.469Z,100021.22
2023-02-14T04:38:19.270Z,100021.22
2023-02-14T04:43:25.062Z,100017.16
2023-02-14T04:48:29.657Z,100031.81
2023-02-14T04:53:34.180Z,100025.19
2023-02-14T04:58:39.955Z,100027.66
2023-02-14T05:03:44.315Z,100027.66
2023-02-14T05:08:48.699Z,100024.34
2023-02-14T05:13:54.577Z,100027.50
2023-02-14T05:18:58.912Z,100039.38
2023-02-14T05:24:03.451Z,100043.78
2023-02-14T05:29:09.349Z,100046.44
2023-02-14T05:34:14.162Z,100044.97
2023-02-14T05:39:20.498Z,100051.22
2023-02-14T05:44:26.051Z,100058.34
2023-02-14T05:49:30.173Z,100052.63
2023-02-14T05:54:34.707Z,100064.59
2023-02-14T05:59:40.593Z,100051.38
2023-02-14T06:04:46.699Z,100067.63
2023-02-14T06:09:51.115Z,100063.94
2023-02-14T06:14:56.820Z,100073.44
2023-02-14T06:20:02.556Z,100072.50
2023-02-14T06:25:08.000Z,100085.41
2023-02-14T06:30:16.133Z,100084.75
2023-02-14T06:35:20.670Z,100089.69
2023-02-14T06:40:25.876Z,100082.66
2023-02-14T06:45:31.997Z,100092.66
2023-02-14T06:50:37.274Z,100088.56
2023-02-14T06:55:43.783Z,100093.56
2023-02-14T07:00:50.756Z,100094.16
2023-02-14T07:05:55.790Z,100094.72
2023-02-14T07:11:00.901Z,100091.06
2023-02-14T07:16:07.347Z,100105.03
2023-02-14T07:21:11.716Z,100092.59
2023-02-14T07:26:18.297Z,100101.00
2023-02-14T07:31:24.730Z,100092.38
2023-02-14T07:36:29.432Z,100088.78
2023-02-14T07:41:33.563Z,100097.34
2023-02-14T07:46:43.581Z,100096.81
2023-02-14T07:51:47.800Z,100103.81
2023-02-14T07:56:52.211Z,100089.84
2023-02-14T08:01:58.251Z,100107.47
2023-02-14T08:07:02.137Z,100102.16
2023-02-14T08:12:24.574Z,100117.78
2023-02-14T08:17:30.546Z,100100.09
2023-02-14T08:22:34.779Z,100109.94
2023-02-14T08:27:39.747Z,100100.59
2023-02-14T08:32:45.837Z,100124.41
2023-02-14T08:37:50.422Z,100117.59
2023-02-14T08:42:54.703Z,100124.25
2023-02-14T08:48:04.905Z,100128.59
2023-02-14T08:53:10.401Z,100136.44
2023-02-14T08:58:14.957Z,100134.31
2023-02-14T09:03:21.142Z,100133.28
2023-02-14T09:08:25.759Z,100146.13
2023-02-14T09:13:30.615Z,100158.25
2023-02-14T09:18:37.769Z,100145.03
2023-02-14T09:23:41.987Z,100151.06
2023-02-14T09:28:46.873Z,100150.25
2023-02-14T09:34:10.699Z,100151.25
2023-02-14T09:39:14.768Z,100145.06
2023-02-14T09:44:28.396Z,100149.34
2023-02-14T09:49:39.999Z,100151.38
2023-02-14T09:54:49.571Z,100157.47
2023-02-14T10:00:00.796Z,100154.06
2023-02-14T10:05:14.990Z,100155.94
2023-02-14T10:10:26.536Z,100152.88
2023-02-14T10:15:35.769Z,100140.78
2023-02-14T10:20:46.474Z,100153.25
2023-02-14T10:25:56.340Z,100160.34
2023-02-14T10:31:21.298Z,100152.97
2023-02-14T10:37:05.967Z,100151.00
2023-02-14T10:42:23.587Z,100154.81
2023-02-14T10:47:47.099Z,100154.09
2023-02-14T10:53:06.073Z,100143.94
2023-02-14T10:58:16.477Z,100141.81
2023-02-14T11:03:21.833Z,100147.69
2023-02-14T11:08:33.900Z,100133.28
2023-02-14T11:13:42.655Z,100134.66
2023-02-14T11:18:48.113Z,100140.94
2023-02-14T11:23:54.006Z,100134.19
2023-02-14T11:29:02.341Z,100128.53
2023-02-14T11:34:24.939Z,100125.22
2023-02-14T11:39:34.748Z,100133.50
2023-02-14T11:44:44.206Z,100111.31
2023-02-14T11:49:57.406Z,100118.19
2023-02-14T11:55:03.299Z,100113.41
2023-02-14T12:00:18.258Z,100110.84
2023-02-14T12:05:28.933Z,100104.31
2023-02-14T12:10:37.335Z,100095.94
2023-02-14T12:15:53.685Z,100086.19
2023-02-14T12:21:04.977Z,100082.25
2023-02-14T12:26:24.012Z,100076.31
2023-02-14T12:31:28.468Z,100076.50
2023-02-14T12:37:12.239Z,100076.03
2023-02-14T12:42:35.112Z,100079.16
2023-02-14T12:47:51.280Z,100069.94
2023-02-14T12:53:30.602Z,100061.00
2023-02-14T12:58:51.117Z,100057.84
2023-02-14T13:04:23.472Z,100060.34
2023-02-14T13:09:38.000Z,100052.88
2023-02-14T13:14:59.121Z,100054.97
2023-02-14T13:20:27.553Z,100052.44
2023-02-14T13:25:37.418Z,100048.06
2023-02-14T13:30:44.534Z,100042.44
2023-02-14T13:35:50.047Z,100047.38
2023-02-14T13:40:56.397Z,100044.16
2023-02-14T13:46:05.108Z,100036.16
2023-02-14T13:51:11.420Z,100047.25
2023-02-14T13:56:35.846Z,100038.97
2023-02-14T14:01:48.205Z,100047.50
2023-02-14T14:07:23.208Z,100035.94
2023-02-14T14:12:45.953Z,100037.47
2023-02-14T14:18:32.771Z,100032.75
2023-02-14T14:23:38.614Z,100033.34
2023-02-14T14:28:47.710Z,100036.19
2023-02-14T14:34:03.475Z,100033.13
2023-02-14T14:39:10.648Z,100033.16
2023-02-14T14:44:16.384Z,100024.72
2023-02-14T14:49:22.582Z,100024.47
2023-02-14T14:54:27.703Z,100029.22
2023-02-14T14:59:35.200Z,100028.47
2023-02-14T15:04:40.652Z,100027.44
2023-02-14T15:09:45.665Z,100028.25
2023-02-14T15:14:54.671Z,100033.09
2023-02-14T15:20:04.579Z,100040.41
2023-02-14T15:25:12.727Z,100038.66
2023-02-14T15:30:29.824Z,100034.88
2023-02-14T15:35:42.267Z,100048.84
2023-02-14T15:40:47.087Z,100052.34
2023-02-14T15:45:56.566Z,100045.44
2023-02-14T15:51:06.336Z,100048.94
2023-02-14T15:56:22.058Z,100046.81
2023-02-14T16:01:27.366Z,100052.63
2023-02-14T16:06:38.561Z,100060.69
2023-02-14T16:11:44.044Z,100055.16
2023-02-14T16:17:00.805Z,100066.88
2023-02-14T16:22:08.344Z,100063.34
2023-02-14T16:27:13.364Z,100063.63
2023-02-14T16:32:22.889Z,100070.66
2023-02-14T16:37:33.254Z,100075.28
2023-02-14T16:42:39.863Z,100071.59
2023-02-14T16:47:47.161Z,100080.72
2023-02-14T16:52:56.078Z,100074.09
2023-02-14T16:58:01.726Z,100076.28
2023-02-14T17:03:07.272Z,100071.22
2023-02-14T17:08:15.079Z,100088.47
2023-02-14T17:13:23.960Z,100083.31
2023-02-14T17:18:29.006Z,100088.38
2023-02-14T17:23:34.817Z,100081.28
2023-02-14T17:28:39.252Z,100083.78
2023-02-14T17:33:43.756Z,100083.88
2023-02-14T17:38:49.614Z,100084.53
2023-02-14T17:43:55.448Z,100079.06
2023-02-14T17:49:02.666Z,100089.41
2023-02-14T17:54:08.422Z,100084.34
2023-02-14T17:59:12.828Z,100075.38
2023-02-14T18:04:16.999Z,100082.19
2023-02-14T18:09:23.604Z,100078.31
2023-02-14T18:14:28.641Z,100082.03
2023-02-14T18:19:33.686Z,100080.44
2023-02-14T18:24:39.696Z,100082.75
2023-02-14T18:29:43.897Z,100083.97
2023-02-14T18:34:48.270Z,100089.84
2023-02-14T18:39:53.775Z,100083.03
2023-02-14T18:44:58.012Z,100070.94
2023-02-14T18:50:02.158Z,100071.94
2023-02-14T18:55:08.702Z,100070.38
2023-02-14T19:00:15.871Z,100067.56
2023-02-14T19:05:20.694Z,100058.44
2023-02-14T19:10:26.493Z,100062.16
2023-02-14T19:15:30.742Z,100065.34
2023-02-14T19:20:35.323Z,100057.88
2023-02-14T19:25:43.080Z,100066.56
2023-02-14T19:30:48.098Z,100065.31
2023-02-14T19:36:02.013Z,100076.91
2023-02-14T19:41:14.593Z,100078.34
2023-02-14T19:46:21.180Z,100071.09
2023-02-14T19:51:28.097Z,100075.16
2023-02-14T19:56:36.482Z,100076.25
2023-02-14T20:01:43.127Z,100069.44
2023-02-14T20:06:49.255Z,100067.94
2023-02-14T20:11:56.726Z,100063.25
2023-02-14T20:17:03.919Z,100070.69
2023-02-14T20:22:08.503Z,100074.44
2023-02-14T20:27:14.386Z,100065.88
2023-02-14T20:32:19.095Z,100069.47
2023-02-14T20:37:23.682Z,100069.94
2023-02-14T20:42:29.561Z,100064.56
2023-02-14T20:47:34.259Z,100061.06
2023-02-14T20:52:38.631Z,100070.00
2023-02-14T20:57:45.647Z,100068.91
2023-02-14T21:02:50.081Z,100067.59
2023-02-14T21:07:54.354Z,100062.44
2023-02-14T21:13:00.209Z,100063.13
2023-02-14T21:18:04.746Z,100056.44
2023-02-14T21:23:08.958Z,100063.22
2023-02-14T21:28:14.989Z,100057.88
2023-02-14T21:33:19.697Z,100055.00
2023-02-14T21:38:24.086Z,100050.81
2023-02-14T21:43:30.092Z,100046.13
2023-02-14T21:48:52.635Z,100038.00
2023-02-14T21:54:00.214Z,100034.78
2023-02-14T21:59:06.218Z,100024.78
2023-02-14T22:04:13.470Z,100025.94
2023-02-14T22:09:18.893Z,100023.16
2023-02-14T22:14:24.660Z,100024.47
2023-02-14T22:19:28.976Z,100019.63
2023-02-14T22:24:33.196Z,100015.75
2023-02-14T22:29:39.282Z,100015.81
2023-02-14T22:34:43.753Z,100018.06
2023-02-14T22:39:48.116Z,100018.47
2023-02-14T22:44:53.654Z,100024.47
2023-02-14T22:50:00.100Z,100030.88
2023-02-14T22:55:05.468Z,100025.53
2023-02-14T23:00:12.602Z,100027.53
2023-02-14T23:05:17.255Z,100025.97
2023-02-14T23:10:21.779Z,100020.00
2023-02-14T23:15:45.209Z,100019.16
2023-02-14T23:21:07.357Z,100006.13
2023-02-14T23:26:11.466Z,100009.03
2023-02-14T23:31:17.415Z,100011.34
2023-02-14T23:36:22.020Z,100006.59
2023-02-14T23:41:43.634Z,100001.78
2023-02-14T23:46:50.635Z,100002.25
2023-02-14T23:51:56.672Z,99990.88
2023-02-14T23:57:01.342Z,99990.53
